Darstellungsparameter: Aktuell verwendete Einstellungen:
Skalierung der Graphiken ... ?
xyx+y,   Skalierungsfaktor:      Skalierung: Modus: x, Faktor: 1
Darstellungszeitraum ... ?
Vom - - bis: - -   Zeitraum: 07.12.2019 - 07.12.2019
Min/Max/Avg-Anzeige ... ?
Zeige MMA aktuell
Zeige MMA Monat
Zeige MMA alles
Zeige --A aktuell
Zeige --A Monat
Zeige --A alles
Keine MMA-Anzeige
MMA:
Keine MMA-Graphiken
MMA-Basis: 07.12.2019 - 07.12.2019
Quicknavigation für Darstellung... ?
Tage:      1T, 2T, 3T, 5T -1T -2T -3T -5T +1T +2T +3T +5T
Wochen: 1W, 2W, 3W -1W -2W -3W +1W +2W +3W
Monate: 1M, 3M, 6M -1M -3M -6M +1M +3M +6M
Jahre:    1J, 3J, 5J, 10J -1J -3J -5J -10J +1J +3J +5J +10J
Nutze für die Darstellung ... ?
Originaldaten oder Mittelwerte auf ...
Stundenbasis Tagesbasis Wochenbasis
Monatsbasis Jahresbasis      Datenbasis: Original-Daten
Darstellen als:
Statistik (Auto) Statistik J:M      Darstellung:
Zur Graphik,    zurück zur Übersicht aller Sensoren.
 
Tabellarische Datenbersicht: ?
 
Sensor: Nr:Datum:Temp:Feuchte:Taupunkt:
Aussen-T/F 1 07-12-2019 00:00:00 7.4 C 90 % 5.87 C
2 07-12-2019 00:05:00 7.4 C 90 % 5.87 C
3 07-12-2019 00:10:00 7.5 C 90 % 5.97 C
4 07-12-2019 00:15:00 7.6 C 90 % 6.07 C
5 07-12-2019 00:20:00 7.7 C 90 % 6.17 C
6 07-12-2019 00:25:00 7.7 C 90 % 6.17 C
7 07-12-2019 00:30:00 7.7 C 90 % 6.17 C
8 07-12-2019 00:35:00 7.7 C 90 % 6.17 C
9 07-12-2019 00:40:00 7.7 C 90 % 6.17 C
10 07-12-2019 00:45:00 7.8 C 90 % 6.27 C
11 07-12-2019 00:50:00 7.8 C 90 % 6.27 C
12 07-12-2019 00:55:00 7.8 C 90 % 6.27 C
13 07-12-2019 01:00:00 7.9 C 90 % 6.36 C
14 07-12-2019 01:05:00 7.9 C 90 % 6.36 C
15 07-12-2019 01:10:00 8 C 90 % 6.46 C
16 07-12-2019 01:15:00 8 C 90 % 6.46 C
17 07-12-2019 01:20:00 8 C 90 % 6.46 C
18 07-12-2019 01:25:00 8.1 C 90 % 6.56 C
19 07-12-2019 01:30:00 8.2 C 90 % 6.66 C
20 07-12-2019 01:35:00 8.2 C 90 % 6.66 C
21 07-12-2019 01:40:00 8.2 C 90 % 6.66 C
22 07-12-2019 01:45:00 8.2 C 90 % 6.66 C
23 07-12-2019 01:50:00 8.2 C 90 % 6.66 C
24 07-12-2019 01:55:00 8.2 C 91 % 6.82 C
25 07-12-2019 02:00:00 8.2 C 91 % 6.82 C
Sensor: Nr:Datum:Temp:Feuchte:Taupunkt:
Aussen-T/F 26 07-12-2019 02:05:00 8.2 C 91 % 6.82 C
27 07-12-2019 02:10:00 8.1 C 91 % 6.72 C
28 07-12-2019 02:15:00 8.1 C 91 % 6.72 C
29 07-12-2019 02:20:00 8.2 C 92 % 6.98 C
30 07-12-2019 02:25:00 8.2 C 92 % 6.98 C
31 07-12-2019 02:30:00 8.2 C 92 % 6.98 C
32 07-12-2019 02:35:00 8.1 C 93 % 7.04 C
33 07-12-2019 02:40:00 8.1 C 93 % 7.04 C
34 07-12-2019 02:45:00 8.1 C 93 % 7.04 C
35 07-12-2019 02:50:00 8.1 C 94 % 7.19 C
36 07-12-2019 02:55:00 8.1 C 94 % 7.19 C
37 07-12-2019 03:00:00 8.2 C 93 % 7.14 C
38 07-12-2019 03:05:00 8.2 C 93 % 7.14 C
39 07-12-2019 03:10:00 8.3 C 93 % 7.24 C
40 07-12-2019 03:15:00 8.3 C 93 % 7.24 C
41 07-12-2019 03:20:00 8.4 C 93 % 7.34 C
42 07-12-2019 03:25:00 8.6 C 93 % 7.53 C
43 07-12-2019 03:30:00 8.7 C 92 % 7.47 C
44 07-12-2019 03:35:00 8.8 C 91 % 7.41 C
45 07-12-2019 03:40:00 9 C 90 % 7.45 C
46 07-12-2019 03:45:00 9.2 C 89 % 7.48 C
47 07-12-2019 03:50:00 9.2 C 89 % 7.48 C
48 07-12-2019 03:55:00 9.3 C 88 % 7.42 C
49 07-12-2019 04:00:00 9.3 C 88 % 7.42 C
50 07-12-2019 04:05:00 9.2 C 89 % 7.48 C
Sensor: Nr:Datum:Temp:Feuchte:Taupunkt:
Aussen-T/F 51 07-12-2019 04:10:00 9.1 C 89 % 7.39 C
52 07-12-2019 04:15:00 9.1 C 89 % 7.39 C
53 07-12-2019 04:20:00 9 C 89 % 7.29 C
54 07-12-2019 04:25:00 8.9 C 89 % 7.19 C
55 07-12-2019 04:30:00 8.7 C 89 % 6.99 C
56 07-12-2019 04:35:00 8.7 C 90 % 7.15 C
57 07-12-2019 04:40:00 8.6 C 90 % 7.06 C
58 07-12-2019 04:45:00 8.6 C 90 % 7.06 C
59 07-12-2019 04:50:00 8.6 C 90 % 7.06 C
60 07-12-2019 04:55:00 8.5 C 90 % 6.96 C
61 07-12-2019 05:00:00 8.4 C 91 % 7.02 C
62 07-12-2019 05:05:00 8.4 C 91 % 7.02 C
63 07-12-2019 05:10:00 8.4 C 91 % 7.02 C
64 07-12-2019 05:15:00 8.4 C 91 % 7.02 C
65 07-12-2019 05:20:00 8.5 C 92 % 7.28 C
66 07-12-2019 05:25:00 8.6 C 91 % 7.22 C
67 07-12-2019 05:30:00 8.5 C 91 % 7.12 C
68 07-12-2019 05:35:00 8.4 C 91 % 7.02 C
69 07-12-2019 05:40:00 8.4 C 92 % 7.18 C
70 07-12-2019 05:45:00 8.4 C 91 % 7.02 C
71 07-12-2019 05:50:00 8.3 C 91 % 6.92 C
72 07-12-2019 05:55:00 8.2 C 91 % 6.82 C
73 07-12-2019 06:00:00 8.1 C 91 % 6.72 C
74 07-12-2019 06:05:00 8.2 C 91 % 6.82 C
75 07-12-2019 06:10:00 8.2 C 90 % 6.66 C
Sensor: Nr:Datum:Temp:Feuchte:Taupunkt:
Aussen-T/F 76 07-12-2019 06:15:00 8.4 C 89 % 6.7 C
77 07-12-2019 06:20:00 8.6 C 88 % 6.73 C
78 07-12-2019 06:25:00 8.8 C 87 % 6.76 C
79 07-12-2019 06:30:00 8.8 C 87 % 6.76 C
80 07-12-2019 06:35:00 8.7 C 86 % 6.49 C
81 07-12-2019 06:40:00 8.6 C 87 % 6.56 C
82 07-12-2019 06:45:00 8.5 C 87 % 6.46 C
83 07-12-2019 06:50:00 8.4 C 87 % 6.37 C
84 07-12-2019 06:55:00 8.3 C 88 % 6.43 C
85 07-12-2019 07:00:00 8.2 C 88 % 6.33 C
86 07-12-2019 07:05:00 7.9 C 88 % 6.04 C
87 07-12-2019 07:10:00 7.8 C 89 % 6.1 C
88 07-12-2019 07:15:00 7.7 C 89 % 6 C
89 07-12-2019 07:20:00 7.6 C 89 % 5.91 C
90 07-12-2019 07:25:00 7.6 C 90 % 6.07 C
91 07-12-2019 07:30:00 7.6 C 90 % 6.07 C
92 07-12-2019 07:35:00 7.5 C 90 % 5.97 C
93 07-12-2019 07:40:00 7.3 C 90 % 5.77 C
94 07-12-2019 07:45:00 7.4 C 91 % 6.03 C
95 07-12-2019 07:50:00 7.7 C 91 % 6.33 C
96 07-12-2019 07:55:00 7.8 C 91 % 6.43 C
97 07-12-2019 08:00:00 7.9 C 90 % 6.36 C
98 07-12-2019 08:05:00 8.1 C 90 % 6.56 C
99 07-12-2019 08:10:00 8.2 C 90 % 6.66 C
100 07-12-2019 08:15:00 8.3 C 90 % 6.76 C
Sensor: Nr:Datum:Temp:Feuchte:Taupunkt:
Aussen-T/F 101 07-12-2019 08:20:00 8.2 C 90 % 6.66 C
102 07-12-2019 08:25:00 8.3 C 90 % 6.76 C
103 07-12-2019 08:30:00 8.4 C 90 % 6.86 C
104 07-12-2019 08:35:00 8.4 C 90 % 6.86 C
105 07-12-2019 08:40:00 8.6 C 90 % 7.06 C
106 07-12-2019 08:45:00 8.6 C 90 % 7.06 C
107 07-12-2019 08:50:00 8.6 C 89 % 6.89 C
108 07-12-2019 08:55:00 8.6 C 89 % 6.89 C
109 07-12-2019 09:00:00 8.7 C 89 % 6.99 C
110 07-12-2019 09:05:00 8.7 C 89 % 6.99 C
111 07-12-2019 09:10:00 8.7 C 90 % 7.15 C
112 07-12-2019 09:15:00 8.7 C 90 % 7.15 C
113 07-12-2019 09:20:00 8.7 C 90 % 7.15 C
114 07-12-2019 09:25:00 8.7 C 90 % 7.15 C
115 07-12-2019 09:30:00 8.7 C 90 % 7.15 C
116 07-12-2019 09:35:00 8.7 C 90 % 7.15 C
117 07-12-2019 09:40:00 8.7 C 90 % 7.15 C
118 07-12-2019 09:45:00 8.7 C 90 % 7.15 C
119 07-12-2019 09:50:00 8.7 C 90 % 7.15 C
120 07-12-2019 09:55:00 8.8 C 90 % 7.25 C
121 07-12-2019 10:00:00 8.8 C 89 % 7.09 C
122 07-12-2019 10:05:00 8.8 C 90 % 7.25 C
123 07-12-2019 10:10:00 8.9 C 89 % 7.19 C
124 07-12-2019 10:15:00 9 C 89 % 7.29 C
125 07-12-2019 10:20:00 9.1 C 89 % 7.39 C
Sensor: Nr:Datum:Temp:Feuchte:Taupunkt:
Aussen-T/F 126 07-12-2019 10:25:00 9.2 C 88 % 7.32 C
127 07-12-2019 10:30:00 9.3 C 87 % 7.25 C
128 07-12-2019 10:35:00 9.4 C 87 % 7.35 C
129 07-12-2019 10:40:00 9.4 C 87 % 7.35 C
130 07-12-2019 10:45:00 9.4 C 87 % 7.35 C
131 07-12-2019 10:50:00 9.5 C 87 % 7.45 C
132 07-12-2019 10:55:00 9.5 C 87 % 7.45 C
133 07-12-2019 11:00:00 9.6 C 88 % 7.71 C
134 07-12-2019 11:05:00 9.6 C 88 % 7.71 C
135 07-12-2019 11:10:00 9.5 C 89 % 7.78 C
136 07-12-2019 11:15:00 9.4 C 89 % 7.68 C
137 07-12-2019 11:20:00 9.4 C 90 % 7.85 C
138 07-12-2019 11:25:00 9.3 C 90 % 7.75 C
139 07-12-2019 11:30:00 9.3 C 91 % 7.91 C
140 07-12-2019 11:35:00 9.3 C 91 % 7.91 C
141 07-12-2019 11:40:00 9.3 C 91 % 7.91 C
142 07-12-2019 11:45:00 9.3 C 91 % 7.91 C
143 07-12-2019 11:50:00 9.3 C 90 % 7.75 C
144 07-12-2019 11:55:00 9.3 C 90 % 7.75 C
145 07-12-2019 12:00:00 9.3 C 89 % 7.58 C
146 07-12-2019 12:05:00 9.3 C 89 % 7.58 C
147 07-12-2019 12:10:00 9.3 C 88 % 7.42 C
148 07-12-2019 12:15:00 9.3 C 88 % 7.42 C
149 07-12-2019 12:20:00 9.4 C 87 % 7.35 C
150 07-12-2019 12:25:00 9.4 C 86 % 7.18 C
Sensor: Nr:Datum:Temp:Feuchte:Taupunkt:
Aussen-T/F 151 07-12-2019 12:30:00 9.6 C 86 % 7.38 C
152 07-12-2019 12:35:00 9.6 C 86 % 7.38 C
153 07-12-2019 12:40:00 9.7 C 86 % 7.47 C
154 07-12-2019 12:45:00 9.7 C 85 % 7.3 C
155 07-12-2019 12:50:00 9.7 C 84 % 7.13 C
156 07-12-2019 12:55:00 9.7 C 84 % 7.13 C
157 07-12-2019 13:00:00 9.8 C 84 % 7.23 C
158 07-12-2019 13:05:00 9.8 C 85 % 7.4 C
159 07-12-2019 13:10:00 9.9 C 84 % 7.33 C
160 07-12-2019 13:15:00 10 C 83 % 7.25 C
161 07-12-2019 13:20:00 10.1 C 82 % 7.17 C
162 07-12-2019 13:25:00 10.1 C 82 % 7.17 C
163 07-12-2019 13:30:00 10.1 C 82 % 7.17 C
164 07-12-2019 13:35:00 10.1 C 82 % 7.17 C
165 07-12-2019 13:40:00 10.1 C 82 % 7.17 C
166 07-12-2019 13:45:00 10.1 C 81 % 6.99 C
167 07-12-2019 13:50:00 10.1 C 81 % 6.99 C
168 07-12-2019 13:55:00 10.1 C 81 % 6.99 C
169 07-12-2019 14:00:00 10.1 C 81 % 6.99 C
170 07-12-2019 14:05:00 10.1 C 82 % 7.17 C
171 07-12-2019 14:10:00 10.1 C 82 % 7.17 C
172 07-12-2019 14:15:00 10.1 C 81 % 6.99 C
173 07-12-2019 14:20:00 10.1 C 82 % 7.17 C
174 07-12-2019 14:25:00 10.1 C 82 % 7.17 C
175 07-12-2019 14:30:00 10.2 C 82 % 7.27 C
Sensor: Nr:Datum:Temp:Feuchte:Taupunkt:
Aussen-T/F 176 07-12-2019 14:35:00 10.2 C 82 % 7.27 C
177 07-12-2019 14:40:00 10.2 C 83 % 7.45 C
178 07-12-2019 14:45:00 10.2 C 83 % 7.45 C
179 07-12-2019 14:50:00 10.2 C 83 % 7.45 C
180 07-12-2019 14:55:00 10.2 C 83 % 7.45 C
181 07-12-2019 15:00:00 10.2 C 83 % 7.45 C
182 07-12-2019 15:05:00 10.2 C 83 % 7.45 C
183 07-12-2019 15:10:00 10.2 C 83 % 7.45 C
184 07-12-2019 15:15:00 10.1 C 83 % 7.35 C
185 07-12-2019 15:20:00 10.1 C 83 % 7.35 C
186 07-12-2019 15:25:00 10.1 C 83 % 7.35 C
187 07-12-2019 15:30:00 10.1 C 83 % 7.35 C
188 07-12-2019 15:35:00 10 C 83 % 7.25 C
189 07-12-2019 15:40:00 10 C 82 % 7.07 C
190 07-12-2019 15:45:00 10 C 83 % 7.25 C
191 07-12-2019 15:50:00 9.9 C 83 % 7.15 C
192 07-12-2019 15:55:00 9.9 C 84 % 7.33 C
193 07-12-2019 16:00:00 9.8 C 84 % 7.23 C
194 07-12-2019 16:05:00 9.7 C 85 % 7.3 C
195 07-12-2019 16:10:00 9.7 C 85 % 7.3 C
196 07-12-2019 16:15:00 9.5 C 85 % 7.11 C
197 07-12-2019 16:20:00 9.4 C 85 % 7.01 C
198 07-12-2019 16:25:00 9.4 C 85 % 7.01 C
199 07-12-2019 16:30:00 9.3 C 86 % 7.08 C
200 07-12-2019 16:35:00 9.3 C 86 % 7.08 C
Sensor: Nr:Datum:Temp:Feuchte:Taupunkt:
Aussen-T/F 201 07-12-2019 16:40:00 9.2 C 86 % 6.98 C
202 07-12-2019 16:45:00 9.2 C 86 % 6.98 C
203 07-12-2019 16:50:00 9.1 C 87 % 7.05 C
204 07-12-2019 16:55:00 9.1 C 87 % 7.05 C
205 07-12-2019 17:00:00 9 C 87 % 6.96 C
206 07-12-2019 17:05:00 8.9 C 88 % 7.02 C
207 07-12-2019 17:10:00 8.8 C 88 % 6.93 C
208 07-12-2019 17:15:00 8.8 C 88 % 6.93 C
209 07-12-2019 17:20:00 8.8 C 89 % 7.09 C
210 07-12-2019 17:25:00 8.8 C 89 % 7.09 C
211 07-12-2019 17:30:00 8.7 C 89 % 6.99 C
212 07-12-2019 17:35:00 8.7 C 89 % 6.99 C
213 07-12-2019 17:40:00 8.6 C 89 % 6.89 C
214 07-12-2019 17:45:00 8.6 C 89 % 6.89 C
215 07-12-2019 17:50:00 8.6 C 89 % 6.89 C
216 07-12-2019 17:55:00 8.6 C 89 % 6.89 C
217 07-12-2019 18:00:00 8.6 C 89 % 6.89 C
218 07-12-2019 18:05:00 8.5 C 89 % 6.79 C
219 07-12-2019 18:10:00 8.5 C 89 % 6.79 C
220 07-12-2019 18:15:00 8.5 C 89 % 6.79 C
221 07-12-2019 18:20:00 8.5 C 89 % 6.79 C
222 07-12-2019 18:25:00 8.4 C 89 % 6.7 C
223 07-12-2019 18:30:00 8.4 C 89 % 6.7 C
224 07-12-2019 18:35:00 8.3 C 89 % 6.6 C
225 07-12-2019 18:40:00 8.3 C 90 % 6.76 C
Sensor: Nr:Datum:Temp:Feuchte:Taupunkt:
Aussen-T/F 226 07-12-2019 18:45:00 8.3 C 90 % 6.76 C
227 07-12-2019 18:50:00 8.3 C 90 % 6.76 C
228 07-12-2019 18:55:00 8.3 C 90 % 6.76 C
229 07-12-2019 19:00:00 8.3 C 91 % 6.92 C
230 07-12-2019 19:05:00 8.3 C 91 % 6.92 C
231 07-12-2019 19:10:00 8.3 C 91 % 6.92 C
232 07-12-2019 19:15:00 8.3 C 91 % 6.92 C
233 07-12-2019 19:20:00 8.3 C 91 % 6.92 C
234 07-12-2019 19:25:00 8.3 C 91 % 6.92 C
235 07-12-2019 19:30:00 8.2 C 91 % 6.82 C
236 07-12-2019 19:35:00 8.2 C 91 % 6.82 C
237 07-12-2019 19:40:00 8.2 C 91 % 6.82 C
238 07-12-2019 19:45:00 8.2 C 91 % 6.82 C
239 07-12-2019 19:50:00 8.2 C 91 % 6.82 C
240 07-12-2019 19:55:00 8.2 C 91 % 6.82 C
241 07-12-2019 20:00:00 8.1 C 91 % 6.72 C
242 07-12-2019 20:05:00 8.1 C 91 % 6.72 C
243 07-12-2019 20:10:00 8.1 C 91 % 6.72 C
244 07-12-2019 20:15:00 8.1 C 91 % 6.72 C
245 07-12-2019 20:20:00 8 C 91 % 6.62 C
246 07-12-2019 20:25:00 8 C 91 % 6.62 C
247 07-12-2019 20:30:00 8 C 91 % 6.62 C
248 07-12-2019 20:35:00 7.9 C 91 % 6.52 C
249 07-12-2019 20:40:00 7.9 C 91 % 6.52 C
250 07-12-2019 20:45:00 7.9 C 91 % 6.52 C
Sensor: Nr:Datum:Temp:Feuchte:Taupunkt:
Aussen-T/F 251 07-12-2019 20:50:00 8 C 91 % 6.62 C
252 07-12-2019 20:55:00 8.1 C 91 % 6.72 C
253 07-12-2019 21:00:00 8.1 C 91 % 6.72 C
254 07-12-2019 21:05:00 8.1 C 91 % 6.72 C
255 07-12-2019 21:10:00 8.1 C 91 % 6.72 C
256 07-12-2019 21:15:00 8.2 C 91 % 6.82 C
257 07-12-2019 21:20:00 8.2 C 91 % 6.82 C
258 07-12-2019 21:25:00 8.3 C 90 % 6.76 C
259 07-12-2019 21:30:00 8.3 C 90 % 6.76 C
260 07-12-2019 21:35:00 8.3 C 90 % 6.76 C
261 07-12-2019 21:40:00 8.4 C 90 % 6.86 C
262 07-12-2019 21:45:00 8.4 C 90 % 6.86 C
263 07-12-2019 21:50:00 8.4 C 90 % 6.86 C
264 07-12-2019 21:55:00 8.4 C 90 % 6.86 C
265 07-12-2019 22:00:00 8.4 C 90 % 6.86 C
266 07-12-2019 22:05:00 8.4 C 90 % 6.86 C
267 07-12-2019 22:10:00 8.5 C 90 % 6.96 C
268 07-12-2019 22:15:00 8.5 C 90 % 6.96 C
269 07-12-2019 22:20:00 8.5 C 90 % 6.96 C
270 07-12-2019 22:25:00 8.4 C 90 % 6.86 C
271 07-12-2019 22:30:00 8.4 C 90 % 6.86 C
272 07-12-2019 22:35:00 8.4 C 90 % 6.86 C
273 07-12-2019 22:40:00 8.3 C 90 % 6.76 C
274 07-12-2019 22:45:00 8.3 C 90 % 6.76 C
275 07-12-2019 22:50:00 8.3 C 90 % 6.76 C
Sensor: Nr:Datum:Temp:Feuchte:Taupunkt:
Aussen-T/F 276 07-12-2019 22:55:00 8.3 C 90 % 6.76 C
277 07-12-2019 23:00:00 8.2 C 91 % 6.82 C
278 07-12-2019 23:05:00 8.2 C 91 % 6.82 C
279 07-12-2019 23:10:00 8.2 C 91 % 6.82 C
280 07-12-2019 23:15:00 8.2 C 91 % 6.82 C
281 07-12-2019 23:20:00 8.2 C 91 % 6.82 C
282 07-12-2019 23:25:00 8.2 C 92 % 6.98 C
283 07-12-2019 23:30:00 8.2 C 91 % 6.82 C
284 07-12-2019 23:35:00 8.2 C 91 % 6.82 C
285 07-12-2019 23:40:00 8.2 C 92 % 6.98 C
286 07-12-2019 23:45:00 8.2 C 92 % 6.98 C
287 07-12-2019 23:50:00 8.2 C 92 % 6.98 C
288 07-12-2019 23:55:00 8.2 C 91 % 6.82 C

Legende:
   Min
   Max


Maximal/Minimal-Werte vom 07.12.2019 - 07.12.2019

Sensor Min Max Avg
Temp
(Aussen-T/F)
7.3 °C
07-12-2019  07:40:00
10.2 °C
07-12-2019  14:30:00
8.71 °C
Feuchte
(Aussen-T/F)
81 %
07-12-2019  13:45:00
94 %
07-12-2019  02:50:00
88.79 %
Taupunkt
(Aussen-T/F)
5.77 C
07-12-2019  07:40:00
7.91 C
07-12-2019  11:30:00
6.93 C

Die Daten stammen von einer Davis Vantage Pro 2 Wetter-Station und werden unter Linux mit der Software wview2wettercgi und aufbereitet. Alle Angaben erfolgen ohne Gewähr für ihre Vollständigkeit oder Richtigkeit.
Kontakt: Rainer Krienke krienke@uni-koblenz.de . Meine Webseiten an der Uni Koblenz oder privat.
Version: $Revision: 0.78 $